Time;durP1;ratioP1;P1;durP2;ratioP2;P2;SDS_P1;SDS_P2;PMS_P1;PMS_P2;Temp;Humidity;BMP_temperature;BMP_pressure;BME280_temperature;BME280_humidity;BME280_pressure;Samples;Min_cycle;Max_cycle;Signal;HPM_P1;HPM_P2
2022/05/19 00:01:12;;;;;;;2.90;1.45;;;16.30;48.60;;;;;;5067223;28;20021;-78
2022/05/19 00:03:39;;;;;;;6.43;1.40;;;16.20;48.40;;;;;;5070577;28;20047;-77
2022/05/19 00:06:07;;;;;;;1.70;1.27;;;16.20;48.80;;;;;;5074139;28;20441;-79
2022/05/19 00:08:33;;;;;;;3.03;1.48;;;16.20;48.70;;;;;;5074550;28;20040;-78
2022/05/19 00:11:03;;;;;;;2.78;1.30;;;16.10;48.10;;;;;;5075021;28;20032;-79
2022/05/19 00:13:30;;;;;;;2.75;1.92;;;16.10;48.10;;;;;;5058190;28;20028;-77
2022/05/19 00:15:56;;;;;;;1.75;1.30;;;16.10;47.40;;;;;;5073678;28;20016;-78
2022/05/19 00:18:22;;;;;;;3.05;1.42;;;16.10;47.00;;;;;;5073901;28;20028;-78
2022/05/19 00:20:47;;;;;;;2.67;1.38;;;16.10;47.40;;;;;;5073432;28;20337;-77
2022/05/19 00:23:14;;;;;;;3.40;1.30;;;16.00;47.60;;;;;;5074208;28;20055;-78
2022/05/19 00:25:40;;;;;;;1.52;1.17;;;16.00;47.60;;;;;;5073257;28;20054;-78
2022/05/19 00:28:06;;;;;;;1.48;1.10;;;16.00;47.70;;;;;;5070457;28;20025;-80
2022/05/19 00:30:32;;;;;;;2.70;1.90;;;16.00;47.90;;;;;;5094352;28;20024;-80
2022/05/19 00:32:58;;;;;;;4.18;1.25;;;15.90;47.70;;;;;;5074733;28;20278;-79
2022/05/19 00:35:24;;;;;;;2.05;1.13;;;15.90;48.00;;;;;;5074187;28;20020;-77
2022/05/19 00:37:49;;;;;;;3.20;1.20;;;15.80;48.10;;;;;;5073198;28;20032;-78
2022/05/19 00:40:18;;;;;;;2.30;1.73;;;15.80;48.50;;;;;;5074042;28;20136;-78
2022/05/19 00:42:44;;;;;;;2.65;1.30;;;15.80;48.30;;;;;;5073553;28;20024;-78
2022/05/19 00:45:10;;;;;;;1.50;0.90;;;15.70;48.50;;;;;;5074273;28;20089;-78
2022/05/19 00:47:54;;;;;;;1.50;1.35;;;15.70;48.20;;;;;;5074234;28;20035;-78
2022/05/19 00:50:29;;;;;;;3.00;1.02;;;15.60;47.50;;;;;;5073975;28;20036;-78
2022/05/19 00:53:04;;;;;;;1.60;1.17;;;15.60;48.00;;;;;;5073546;28;20056;-77
2022/05/19 00:55:37;;;;;;;2.00;1.10;;;15.60;48.10;;;;;;5074437;28;20075;-78
2022/05/19 00:58:13;;;;;;;2.28;1.15;;;15.60;48.10;;;;;;5074168;28;20025;-78
2022/05/19 01:00:41;;;;;;;1.88;1.23;;;15.50;47.90;;;;;;5073459;28;20127;-75
2022/05/19 01:03:07;;;;;;;1.65;1.30;;;15.50;47.90;;;;;;5072886;28;20095;-79
2022/05/19 01:05:47;;;;;;;2.08;1.20;;;15.50;48.10;;;;;;5073248;28;20024;-78
2022/05/19 01:08:40;;;;;;;2.92;1.20;;;15.50;48.00;;;;;;5073376;28;20024;-79
2022/05/19 01:11:07;;;;;;;2.38;1.50;;;15.40;48.40;;;;;;5091645;28;20127;-78
2022/05/19 01:13:35;;;;;;;1.20;0.88;;;15.40;48.50;;;;;;5093056;28;20102;-78
2022/05/19 01:16:03;;;;;;;2.47;1.10;;;15.30;48.80;;;;;;5093387;28;20036;-78
2022/05/19 01:18:30;;;;;;;1.58;1.13;;;15.30;49.30;;;;;;5092217;28;20028;-79
2022/05/19 01:20:56;;;;;;;2.50;1.05;;;15.30;49.50;;;;;;5093014;28;20016;-79
2022/05/19 01:24:00;;;;;;;1.60;0.93;;;15.30;49.70;;;;;;5093709;28;20036;-77
2022/05/19 01:26:45;;;;;;;1.80;1.15;;;15.20;49.90;;;;;;5093894;28;20111;-79
2022/05/19 01:29:13;;;;;;;2.70;1.20;;;15.20;50.10;;;;;;5074835;28;20380;-79
2022/05/19 01:31:50;;;;;;;3.53;1.30;;;15.10;50.50;;;;;;5093651;28;20066;-80
2022/05/19 01:34:20;;;;;;;1.55;1.08;;;15.10;50.80;;;;;;5092922;28;20028;-78
2022/05/19 01:36:46;;;;;;;1.98;1.02;;;15.10;50.80;;;;;;5092677;28;20153;-78
2022/05/19 01:39:16;;;;;;;2.78;1.10;;;15.00;51.10;;;;;;5093387;28;20149;-79
2022/05/19 01:41:57;;;;;;;2.83;1.25;;;15.00;50.90;;;;;;5092164;28;20107;-77
2022/05/19 01:44:42;;;;;;;1.58;0.98;;;15.00;51.50;;;;;;5092636;28;20039;-79
2022/05/19 01:47:15;;;;;;;1.10;1.00;;;15.00;51.70;;;;;;5092420;28;20024;-78
2022/05/19 01:49:51;;;;;;;2.78;0.98;;;14.90;51.90;;;;;;5092141;28;20376;-76
2022/05/19 01:52:27;;;;;;;2.25;1.48;;;14.90;51.70;;;;;;5092092;28;20532;-77
2022/05/19 01:55:11;;;;;;;3.58;1.30;;;15.00;51.90;;;;;;5092020;28;20024;-78
2022/05/19 01:57:53;;;;;;;1.08;0.90;;;14.90;52.40;;;;;;5092835;28;20032;-78
2022/05/19 02:00:26;;;;;;;2.00;1.02;;;14.90;52.90;;;;;;5092282;28;20063;-78
2022/05/19 02:03:19;;;;;;;1.23;0.85;;;14.90;52.80;;;;;;5092099;28;20113;-77
2022/05/19 02:06:01;;;;;;;3.17;0.95;;;14.80;52.40;;;;;;5092463;28;20362;-77
2022/05/19 02:08:42;;;;;;;1.48;0.82;;;14.80;51.40;;;;;;5092585;28;20055;-78
2022/05/19 02:11:13;;;;;;;1.73;1.20;;;14.80;52.10;;;;;;5071373;28;20036;-78
2022/05/19 02:13:40;;;;;;;2.35;1.23;;;14.80;52.70;;;;;;5052473;28;20025;-79
2022/05/19 02:16:08;;;;;;;2.00;1.25;;;14.80;52.40;;;;;;5052308;28;20021;-78
2022/05/19 02:18:34;;;;;;;2.50;1.30;;;14.80;52.20;;;;;;5052815;28;20108;-78
2022/05/19 02:21:04;;;;;;;3.15;1.10;;;14.80;51.70;;;;;;5051800;28;20565;-77
2022/05/19 02:23:32;;;;;;;2.40;1.20;;;14.80;51.40;;;;;;5052707;28;20021;-78
2022/05/19 02:25:58;;;;;;;1.63;0.95;;;14.80;52.00;;;;;;5050169;28;20456;-78
2022/05/19 02:28:31;;;;;;;3.30;1.05;;;14.80;52.10;;;;;;5052224;28;20021;-78
2022/05/19 02:30:58;;;;;;;2.50;1.17;;;14.70;52.50;;;;;;5051798;28;20128;-78
2022/05/19 02:33:24;;;;;;;1.27;0.90;;;14.70;52.80;;;;;;5052319;28;20025;-78
2022/05/19 02:35:51;;;;;;;2.75;1.17;;;14.70;53.10;;;;;;5051540;28;20028;-77
2022/05/19 02:38:18;;;;;;;3.38;1.30;;;14.70;53.30;;;;;;5052112;28;20037;-79
2022/05/19 02:40:45;;;;;;;2.40;1.45;;;14.70;54.10;;;;;;5051546;28;20534;-77
2022/05/19 02:43:13;;;;;;;1.17;1.08;;;14.60;54.40;;;;;;5051974;28;20063;-79
2022/05/19 02:45:39;;;;;;;4.50;1.45;;;14.60;54.30;;;;;;5052147;28;20028;-79
2022/05/19 02:48:06;;;;;;;1.85;1.13;;;14.60;54.70;;;;;;5051171;28;20344;-78
2022/05/19 02:50:32;;;;;;;2.08;1.17;;;14.60;54.90;;;;;;5052104;28;20075;-79
2022/05/19 02:52:58;;;;;;;2.60;1.17;;;14.60;54.80;;;;;;5032742;28;20028;-78
2022/05/19 02:55:24;;;;;;;1.40;1.05;;;14.50;54.90;;;;;;5051898;28;20029;-78
2022/05/19 02:57:51;;;;;;;3.67;1.20;;;14.50;55.30;;;;;;5051521;28;20032;-77
2022/05/19 03:00:20;;;;;;;2.05;1.27;;;14.50;55.50;;;;;;5052016;28;20065;-79
2022/05/19 03:02:46;;;;;;;2.10;1.50;;;14.50;55.40;;;;;;5033078;28;20044;-78
2022/05/19 03:05:15;;;;;;;2.85;1.25;;;14.50;55.60;;;;;;5052322;28;20087;-78
2022/05/19 03:07:41;;;;;;;2.35;1.10;;;14.40;55.40;;;;;;5051823;28;20410;-79
2022/05/19 03:10:07;;;;;;;3.25;0.85;;;14.50;55.40;;;;;;5051249;28;20150;-78
2022/05/19 03:12:33;;;;;;;1.23;1.00;;;14.40;55.60;;;;;;5051604;28;20037;-78
2022/05/19 03:14:59;;;;;;;3.35;1.10;;;14.30;55.80;;;;;;5079340;28;20036;-78
2022/05/19 03:20:10;;;;;;;2.50;0.90;;;14.30;56.00;;;;;;5091321;28;20049;-79
2022/05/19 03:22:36;;;;;;;1.63;1.30;;;14.20;56.20;;;;;;5091829;28;20050;-79
2022/05/19 03:25:03;;;;;;;4.70;1.30;;;14.20;56.50;;;;;;5090972;28;20032;-79
2022/05/19 03:27:28;;;;;;;1.33;1.00;;;14.20;56.90;;;;;;5092001;28;20024;-79
2022/05/19 03:29:54;;;;;;;2.83;1.30;;;14.20;57.20;;;;;;5091301;28;20020;-78
2022/05/19 03:32:20;;;;;;;3.22;1.35;;;14.10;57.60;;;;;;5091839;28;20016;-77
2022/05/19 03:34:45;;;;;;;1.83;1.70;;;14.10;58.10;;;;;;5091214;28;20125;-78
2022/05/19 03:37:12;;;;;;;2.75;1.30;;;14.10;58.40;;;;;;5091709;28;20024;-79
2022/05/19 03:39:38;;;;;;;3.30;1.33;;;14.10;58.70;;;;;;5090783;28;20074;-78
2022/05/19 03:42:06;;;;;;;5.45;1.50;;;14.00;58.90;;;;;;5097673;28;20372;-79
2022/05/19 03:44:33;;;;;;;2.70;1.25;;;14.00;59.40;;;;;;5097450;28;20031;-78
2022/05/19 03:46:58;;;;;;;3.63;1.30;;;14.10;59.80;;;;;;5095793;28;20028;-78
2022/05/19 03:49:24;;;;;;;3.05;1.35;;;14.00;59.70;;;;;;5095538;28;20358;-78
2022/05/19 03:51:50;;;;;;;2.63;1.25;;;14.00;60.10;;;;;;5095035;28;20024;-79
2022/05/19 03:54:16;;;;;;;2.88;1.42;;;14.00;60.40;;;;;;5095251;28;20035;-78
2022/05/19 03:56:42;;;;;;;1.98;1.10;;;14.10;60.40;;;;;;5094605;28;20079;-79
2022/05/19 03:59:08;;;;;;;1.20;1.00;;;14.10;60.40;;;;;;5076400;28;20039;-78
2022/05/19 04:01:34;;;;;;;1.33;1.00;;;14.10;60.40;;;;;;5094491;28;20044;-78
2022/05/19 04:04:00;;;;;;;8.15;1.50;;;14.10;60.40;;;;;;5075029;28;20120;-78
2022/05/19 04:06:26;;;;;;;1.73;1.25;;;14.10;60.60;;;;;;5075078;28;20103;-79
2022/05/19 04:08:52;;;;;;;3.35;1.23;;;14.10;60.90;;;;;;5074378;28;20055;-78
2022/05/19 04:11:18;;;;;;;4.75;1.42;;;14.10;60.80;;;;;;5074534;28;20016;-79
2022/05/19 04:13:44;;;;;;;2.65;1.25;;;14.10;61.20;;;;;;5051031;28;20041;-78
2022/05/19 04:16:10;;;;;;;1.95;1.30;;;14.20;61.20;;;;;;5074500;28;20106;-79
2022/05/19 04:18:36;;;;;;;1.88;1.40;;;14.40;61.00;;;;;;5068920;28;20036;-77
2022/05/19 04:21:02;;;;;;;2.03;1.38;;;14.40;60.50;;;;;;5070438;28;20024;-78
2022/05/19 04:23:28;;;;;;;1.80;1.48;;;14.60;60.20;;;;;;5054025;28;20025;-80
2022/05/19 04:25:54;;;;;;;2.28;1.30;;;14.70;59.20;;;;;;5053425;28;20492;-78
2022/05/19 04:28:20;;;;;;;2.05;1.00;;;14.80;58.70;;;;;;5056441;28;20035;-77
2022/05/19 04:30:46;;;;;;;3.33;1.65;;;15.00;58.70;;;;;;5074620;28;20025;-78
2022/05/19 04:33:12;;;;;;;4.50;1.73;;;15.10;58.30;;;;;;5082062;28;20080;-81
2022/05/19 04:35:39;;;;;;;1.58;1.20;;;15.20;57.70;;;;;;5067218;28;20099;-77
2022/05/19 04:38:10;;;;;;;3.03;1.80;;;15.40;57.70;;;;;;5069244;28;20414;-78
2022/05/19 04:40:41;;;;;;;3.03;1.40;;;15.50;57.30;;;;;;5073741;28;20469;-79
2022/05/19 04:43:08;;;;;;;2.22;1.77;;;15.70;57.30;;;;;;5054675;28;20033;-78
2022/05/19 04:45:34;;;;;;;1.70;1.23;;;15.80;57.00;;;;;;5061486;28;20103;-78
2022/05/19 04:48:00;;;;;;;3.70;1.95;;;16.00;57.20;;;;;;5073690;28;20111;-78
2022/05/19 04:50:26;;;;;;;3.00;1.67;;;16.20;55.90;;;;;;5074609;28;20042;-79
2022/05/19 04:52:52;;;;;;;2.97;1.95;;;16.40;55.70;;;;;;5073161;28;20029;-80
2022/05/19 04:55:18;;;;;;;2.33;1.90;;;16.60;55.30;;;;;;5072474;28;20119;-78
2022/05/19 04:57:44;;;;;;;1.50;1.27;;;16.90;54.40;;;;;;5073398;28;20091;-78
2022/05/19 05:00:13;;;;;;;1.58;1.40;;;17.10;54.20;;;;;;5073969;28;20028;-78
2022/05/19 05:02:39;;;;;;;3.03;1.83;;;17.30;53.40;;;;;;5073095;28;20044;-79
2022/05/19 05:05:06;;;;;;;3.97;1.63;;;17.50;52.50;;;;;;5073826;28;20028;-79
2022/05/19 05:07:32;;;;;;;3.35;1.50;;;17.70;52.30;;;;;;5074108;28;20473;-78
2022/05/19 05:09:58;;;;;;;3.58;1.10;;;18.10;51.90;;;;;;5072815;28;20029;-77
2022/05/19 05:12:24;;;;;;;3.13;1.48;;;18.40;50.30;;;;;;5073402;28;20472;-77
2022/05/19 05:14:49;;;;;;;3.97;1.50;;;18.70;50.10;;;;;;5072813;28;20028;-76
2022/05/19 05:17:16;;;;;;;2.65;1.45;;;19.00;49.20;;;;;;5073840;28;20036;-76
2022/05/19 05:19:41;;;;;;;2.45;1.60;;;19.60;49.10;;;;;;5073476;28;20044;-77
2022/05/19 05:22:07;;;;;;;2.63;1.15;;;20.40;47.30;;;;;;5083453;28;20028;-77
2022/05/19 05:24:33;;;;;;;1.60;1.30;;;21.70;45.00;;;;;;5093600;28;20071;-77
2022/05/19 05:26:59;;;;;;;3.58;1.58;;;23.20;42.00;;;;;;5092740;28;20024;-76
2022/05/19 05:29:25;;;;;;;2.67;1.35;;;24.50;38.90;;;;;;5093692;28;20120;-77
2022/05/19 05:31:51;;;;;;;1.50;1.40;;;25.60;37.20;;;;;;5091638;28;20020;-75
2022/05/19 05:34:17;;;;;;;2.40;1.20;;;26.80;35.10;;;;;;5093615;28;20032;-75
2022/05/19 05:36:43;;;;;;;1.17;0.90;;;27.70;34.20;;;;;;5090174;28;20445;-76
2022/05/19 05:39:08;;;;;;;1.20;0.93;;;28.70;32.80;;;;;;5072984;28;20111;-78
2022/05/19 05:41:34;;;;;;;1.60;1.50;;;29.50;32.30;;;;;;5073341;28;20024;-77
2022/05/19 05:44:00;;;;;;;1.33;1.00;;;30.40;30.50;;;;;;5072342;28;20466;-78
2022/05/19 05:46:25;;;;;;;1.73;1.15;;;31.40;29.90;;;;;;5072797;28;20029;-77
2022/05/19 05:48:51;;;;;;;1.67;1.10;;;32.00;29.40;;;;;;5072142;28;20390;-76
2022/05/19 05:51:18;;;;;;;1.70;1.20;;;32.60;28.90;;;;;;5072748;28;20123;-77
2022/05/19 05:53:45;;;;;;;2.92;0.90;;;33.10;28.40;;;;;;5072081;28;20029;-76
2022/05/19 05:56:16;;;;;;;1.67;1.10;;;33.80;27.90;;;;;;5067340;28;20135;-78
2022/05/19 05:58:41;;;;;;;1.70;1.13;;;34.10;27.40;;;;;;5051882;28;20044;-77
2022/05/19 06:01:10;;;;;;;1.30;1.10;;;34.70;27.10;;;;;;5052692;28;20021;-77
2022/05/19 06:03:36;;;;;;;1.60;1.13;;;35.00;26.90;;;;;;5052165;28;20049;-75
2022/05/19 06:06:21;;;;;;;2.15;1.05;;;35.30;26.80;;;;;;5052073;28;20024;-77
2022/05/19 06:08:47;;;;;;;1.33;0.98;;;35.80;26.30;;;;;;5051962;28;20032;-75
2022/05/19 06:11:13;;;;;;;0.80;0.80;;;36.10;26.30;;;;;;5052405;28;20034;-77
2022/05/19 06:13:39;;;;;;;1.15;1.05;;;36.50;26.20;;;;;;5052661;28;20032;-77
2022/05/19 06:16:05;;;;;;;1.42;1.08;;;36.70;26.00;;;;;;5051906;28;20386;-77
2022/05/19 06:18:31;;;;;;;2.47;1.40;;;36.70;25.70;;;;;;5052221;28;20028;-77
2022/05/19 06:20:56;;;;;;;2.45;1.17;;;36.70;25.90;;;;;;5051579;28;20025;-76
2022/05/19 06:23:22;;;;;;;1.30;1.20;;;35.80;25.80;;;;;;5052354;28;20568;-76
2022/05/19 06:25:48;;;;;;;1.40;1.30;;;34.50;26.00;;;;;;5051734;28;20370;-76
2022/05/19 06:28:14;;;;;;;1.40;1.00;;;33.40;26.90;;;;;;5052195;28;20031;-77
2022/05/19 06:30:40;;;;;;;1.67;0.90;;;32.30;27.30;;;;;;5052074;28;20025;-76
2022/05/19 06:33:06;;;;;;;1.95;0.85;;;31.20;28.20;;;;;;5052276;28;20017;-76
2022/05/19 06:35:34;;;;;;;1.13;0.82;;;30.40;28.40;;;;;;5051780;28;20021;-77
2022/05/19 06:38:00;;;;;;;6.55;1.00;;;29.90;28.90;;;;;;5051350;28;20028;-76
2022/05/19 06:40:27;;;;;;;1.05;0.60;;;29.40;29.50;;;;;;5051858;28;20068;-77
2022/05/19 06:42:53;;;;;;;0.80;0.77;;;28.60;30.20;;;;;;5051287;28;20033;-77
2022/05/19 06:45:23;;;;;;;1.05;0.70;;;28.30;30.60;;;;;;5058483;28;20024;-76
2022/05/19 06:47:49;;;;;;;2.20;0.90;;;28.40;31.00;;;;;;5071105;28;20032;-76
2022/05/19 06:50:15;;;;;;;1.20;1.00;;;28.50;30.60;;;;;;5071665;28;20447;-78
2022/05/19 06:52:43;;;;;;;1.17;0.82;;;28.60;30.40;;;;;;5071669;28;20032;-76
2022/05/19 06:55:10;;;;;;;2.15;0.80;;;28.80;29.90;;;;;;5071630;28;20047;-77
2022/05/19 06:57:54;;;;;;;1.38;1.10;;;28.90;29.70;;;;;;5071607;28;20033;-77
2022/05/19 07:00:22;;;;;;;1.00;0.82;;;29.20;29.70;;;;;;5071519;28;20043;-77
2022/05/19 07:02:50;;;;;;;1.30;0.80;;;29.30;29.80;;;;;;5070710;28;20065;-77
2022/05/19 07:05:39;;;;;;;1.25;0.82;;;29.60;29.60;;;;;;5071416;28;20028;-77
2022/05/19 07:08:06;;;;;;;1.63;1.00;;;29.80;29.00;;;;;;5070887;28;20020;-77
2022/05/19 07:10:33;;;;;;;1.08;0.90;;;29.40;29.10;;;;;;5071477;28;20029;-77
2022/05/19 07:12:59;;;;;;;1.52;0.88;;;29.10;29.20;;;;;;5070872;28;20476;-77
2022/05/19 07:15:27;;;;;;;1.65;1.00;;;28.80;29.60;;;;;;5072481;28;20049;-77
2022/05/19 07:17:53;;;;;;;0.95;0.85;;;28.50;30.10;;;;;;5075130;28;20025;-77
2022/05/19 07:23:05;;;;;;;2.95;0.77;;;28.20;30.50;;;;;;5075527;28;20059;-76
2022/05/19 07:25:31;;;;;;;1.05;0.80;;;28.20;31.00;;;;;;5078000;28;20095;-76
2022/05/19 07:27:57;;;;;;;1.00;0.90;;;28.20;30.70;;;;;;5074700;28;20036;-77
2022/05/19 07:30:23;;;;;;;2.13;0.70;;;28.30;30.80;;;;;;5075527;28;20029;-76
2022/05/19 07:32:49;;;;;;;1.70;0.95;;;28.30;30.70;;;;;;5074729;28;20033;-76
2022/05/19 07:35:16;;;;;;;1.30;0.60;;;28.40;30.80;;;;;;5075346;28;20036;-76
2022/05/19 07:37:42;;;;;;;0.57;0.57;;;28.50;30.80;;;;;;5075592;28;20016;-76
2022/05/19 07:40:09;;;;;;;1.50;0.85;;;28.60;31.00;;;;;;5074682;28;20056;-77
2022/05/19 07:42:36;;;;;;;0.60;0.60;;;28.60;30.80;;;;;;5075078;28;20107;-77
2022/05/19 07:45:02;;;;;;;2.45;0.70;;;28.90;30.30;;;;;;5075002;28;20067;-77
2022/05/19 07:47:31;;;;;;;0.65;0.60;;;28.90;30.40;;;;;;5057342;28;20380;-76
2022/05/19 07:49:57;;;;;;;1.02;0.60;;;29.10;30.80;;;;;;5074622;28;20024;-76
2022/05/19 07:52:23;;;;;;;1.02;0.90;;;29.50;30.20;;;;;;5074688;28;20079;-77
2022/05/19 07:54:49;;;;;;;1.05;0.70;;;29.50;29.50;;;;;;5074513;28;20048;-76
2022/05/19 07:57:15;;;;;;;1.02;0.80;;;29.60;29.80;;;;;;5074833;28;20067;-76
2022/05/19 07:59:41;;;;;;;1.33;1.02;;;29.90;28.90;;;;;;5073772;28;20036;-76
2022/05/19 08:02:07;;;;;;;0.65;0.65;;;29.90;29.30;;;;;;5070456;28;20115;-76
2022/05/19 08:04:34;;;;;;;1.42;0.95;;;29.80;28.70;;;;;;5054831;28;20024;-76
2022/05/19 08:07:01;;;;;;;1.00;0.82;;;29.70;28.50;;;;;;5054351;28;20589;-76
2022/05/19 08:15:34;;;;;;;0.98;0.70;;;29.60;29.20;;;;;;5054114;28;20063;-78
2022/05/19 08:17:52;;;;;;;1.02;0.70;;;29.70;28.30;;;;;;5054123;28;20044;-75
2022/05/19 08:20:18;;;;;;;1.20;0.80;;;29.50;28.50;;;;;;5054527;28;20041;-75
2022/05/19 08:22:44;;;;;;;1.23;0.82;;;29.40;28.70;;;;;;5054499;28;20025;-75
2022/05/19 08:25:09;;;;;;;2.50;0.90;;;29.20;28.40;;;;;;5053588;28;20040;-75
2022/05/19 08:27:35;;;;;;;0.68;0.50;;;29.10;28.70;;;;;;5052563;28;20021;-75
2022/05/19 08:30:01;;;;;;;2.78;0.73;;;28.90;28.80;;;;;;5053874;28;20040;-76
2022/05/19 08:32:26;;;;;;;0.93;0.70;;;28.70;28.80;;;;;;5054414;28;20060;-76
2022/05/19 08:34:52;;;;;;;0.80;0.80;;;28.40;29.00;;;;;;5053563;28;20025;-75
2022/05/19 08:37:18;;;;;;;0.80;0.70;;;28.00;29.40;;;;;;5054263;28;20151;-75
2022/05/19 08:39:43;;;;;;;3.30;0.70;;;27.80;29.60;;;;;;5054272;28;20040;-76
2022/05/19 08:42:13;;;;;;;0.80;0.77;;;27.40;29.90;;;;;;5053425;28;20111;-75
2022/05/19 08:44:48;;;;;;;0.65;0.65;;;27.30;30.20;;;;;;5054412;28;20033;-76
2022/05/19 08:47:20;;;;;;;1.33;0.90;;;27.00;30.80;;;;;;5053452;28;20656;-76
2022/05/19 08:49:57;;;;;;;0.70;0.70;;;26.80;30.90;;;;;;5054180;28;20026;-75
2022/05/19 08:52:25;;;;;;;1.35;1.10;;;26.70;31.30;;;;;;5054150;28;20433;-76
2022/05/19 08:54:54;;;;;;;0.73;0.70;;;26.50;31.20;;;;;;5053304;28;20071;-77
2022/05/19 08:57:20;;;;;;;6.53;0.95;;;26.30;31.70;;;;;;5053960;28;20057;-76
2022/05/19 08:59:51;;;;;;;1.40;0.90;;;26.30;32.10;;;;;;5053927;28;20073;-76
2022/05/19 09:02:31;;;;;;;1.40;0.80;;;26.20;32.10;;;;;;5053595;28;20053;-76
2022/05/19 09:05:09;;;;;;;0.57;0.57;;;26.10;32.40;;;;;;5053326;28;20033;-76
2022/05/19 09:08:03;;;;;;;0.70;0.70;;;25.80;32.80;;;;;;5053600;28;20051;-76
2022/05/19 09:10:51;;;;;;;1.00;0.77;;;25.60;32.40;;;;;;4982152;28;20074;-76
2022/05/19 09:13:44;;;;;;;2.38;0.93;;;25.50;33.00;;;;;;5053776;28;20029;-76
2022/05/19 09:16:15;;;;;;;3.17;0.80;;;25.30;33.00;;;;;;5053156;28;20111;-75
2022/05/19 09:18:47;;;;;;;1.80;0.60;;;25.20;34.00;;;;;;5053558;28;20063;-75
2022/05/19 09:21:13;;;;;;;1.20;0.88;;;25.00;33.30;;;;;;5052912;28;20036;-76
2022/05/19 09:23:41;;;;;;;1.30;0.80;;;24.80;34.00;;;;;;5053435;28;20038;-75
2022/05/19 09:26:35;;;;;;;1.45;0.93;;;24.70;34.50;;;;;;5052781;28;20048;-76
2022/05/19 09:29:35;;;;;;;0.93;0.73;;;24.70;34.40;;;;;;5052406;28;20051;-77
2022/05/19 09:32:14;;;;;;;1.88;1.33;;;24.70;34.30;;;;;;5061510;28;20359;-76
2022/05/19 09:34:47;;;;;;;3.72;0.95;;;24.70;34.50;;;;;;5072949;28;20450;-75
2022/05/19 09:37:17;;;;;;;1.40;1.05;;;24.60;34.30;;;;;;5072650;28;20342;-76
2022/05/19 09:39:59;;;;;;;1.23;1.10;;;24.70;34.80;;;;;;5072454;28;20028;-76
2022/05/19 09:42:36;;;;;;;1.00;0.90;;;24.70;34.70;;;;;;5073498;28;20107;-76
2022/05/19 09:45:03;;;;;;;1.00;0.80;;;24.80;34.60;;;;;;5072512;28;20024;-77
2022/05/19 09:47:38;;;;;;;3.58;0.98;;;24.80;34.70;;;;;;5073116;28;20512;-76
2022/05/19 09:50:24;;;;;;;1.75;0.80;;;24.80;35.00;;;;;;5072423;28;20104;-76
2022/05/19 09:52:50;;;;;;;0.98;0.90;;;24.90;34.80;;;;;;5073058;28;20024;-76
2022/05/19 09:55:22;;;;;;;1.33;0.73;;;24.90;34.60;;;;;;5072286;28;20032;-76
2022/05/19 09:57:51;;;;;;;2.90;1.45;;;24.90;34.70;;;;;;5073181;28;20035;-76
2022/05/19 10:00:35;;;;;;;0.60;0.57;;;25.00;34.80;;;;;;5071848;28;20218;-74
2022/05/19 10:03:03;;;;;;;0.70;0.60;;;24.90;34.30;;;;;;5072282;28;20052;-76
2022/05/19 10:05:47;;;;;;;0.73;0.70;;;24.90;34.70;;;;;;5073158;28;20445;-75
2022/05/19 10:08:20;;;;;;;0.80;0.80;;;24.90;34.90;;;;;;5071983;28;20055;-76
2022/05/19 10:11:04;;;;;;;4.97;1.20;;;25.00;34.50;;;;;;5070382;28;20021;-75
2022/05/19 10:13:49;;;;;;;2.78;0.60;;;25.00;34.80;;;;;;5052406;28;20174;-75
2022/05/19 10:16:36;;;;;;;1.55;1.10;;;25.00;34.60;;;;;;5051997;28;20032;-76
2022/05/19 10:19:20;;;;;;;0.95;0.70;;;25.00;34.10;;;;;;5051914;28;20087;-76
2022/05/19 10:22:08;;;;;;;6.13;1.23;;;25.10;34.80;;;;;;5052643;28;20033;-76
2022/05/19 10:25:21;;;;;;;0.77;0.75;;;25.10;34.10;;;;;;5052430;28;20036;-75
2022/05/19 10:31:07;;;;;;;3.80;0.93;;;25.00;34.30;;;;;;5052062;28;20043;-76
2022/05/19 10:34:00;;;;;;;0.88;0.70;;;25.00;34.30;;;;;;5051189;28;20429;-76
2022/05/19 10:36:55;;;;;;;2.38;0.90;;;25.00;34.60;;;;;;5051847;28;20021;-76
2022/05/19 10:39:39;;;;;;;1.15;0.60;;;25.10;34.50;;;;;;5051533;28;20036;-76
2022/05/19 10:42:10;;;;;;;3.40;0.77;;;25.10;34.30;;;;;;5051582;28;20029;-76
2022/05/19 10:44:48;;;;;;;0.80;0.80;;;25.10;34.50;;;;;;5052158;28;20025;-76
2022/05/19 10:47:17;;;;;;;1.30;0.82;;;25.00;34.50;;;;;;5051419;28;20048;-76
2022/05/19 10:50:06;;;;;;;0.98;0.80;;;25.00;34.90;;;;;;5051726;28;20036;-76
2022/05/19 10:52:53;;;;;;;1.42;1.08;;;25.00;34.80;;;;;;5051975;28;20029;-74
2022/05/19 10:55:25;;;;;;;0.65;0.65;;;25.10;34.90;;;;;;5050918;28;20484;-75
2022/05/19 10:58:19;;;;;;;1.50;0.85;;;25.10;34.50;;;;;;5051840;28;20092;-75
2022/05/19 11:01:09;;;;;;;1.10;0.77;;;25.10;34.80;;;;;;5051752;28;20162;-76
2022/05/19 11:03:43;;;;;;;1.58;0.75;;;25.20;34.10;;;;;;5052434;28;20121;-77
2022/05/19 11:06:24;;;;;;;0.80;0.70;;;25.20;34.20;;;;;;5051815;28;20369;-76
2022/05/19 11:08:56;;;;;;;3.70;0.90;;;25.30;34.10;;;;;;5051892;28;20024;-76
2022/05/19 11:11:36;;;;;;;1.38;0.88;;;25.30;34.10;;;;;;5051125;28;20123;-75
2022/05/19 11:14:24;;;;;;;1.55;0.82;;;25.30;33.80;;;;;;5051120;28;20029;-77
2022/05/19 11:17:01;;;;;;;0.80;0.60;;;25.30;34.30;;;;;;5051659;28;20025;-76
2022/05/19 11:19:32;;;;;;;1.75;0.50;;;25.40;34.20;;;;;;5051698;28;20040;-76
2022/05/19 11:22:11;;;;;;;0.50;0.50;;;25.40;33.80;;;;;;5065758;28;20035;-77
2022/05/19 11:27:40;;;;;;;4.22;1.10;;;25.40;33.60;;;;;;5071654;28;20036;-75
2022/05/19 11:30:17;;;;;;;1.48;0.70;;;25.30;33.10;;;;;;5070968;28;20442;-76
2022/05/19 11:32:43;;;;;;;1.83;0.80;;;25.40;33.30;;;;;;5071721;28;20020;-76
2022/05/19 11:35:35;;;;;;;1.48;0.88;;;25.30;33.70;;;;;;5070573;28;20020;-76
2022/05/19 11:38:21;;;;;;;1.38;0.93;;;25.30;33.60;;;;;;5062093;28;20041;-76
2022/05/19 11:40:53;;;;;;;1.58;0.80;;;25.30;34.10;;;;;;5071471;28;20037;-76
2022/05/19 11:43:34;;;;;;;0.82;0.80;;;25.40;33.20;;;;;;5070913;28;20032;-74
2022/05/19 11:46:17;;;;;;;0.82;0.77;;;25.40;33.60;;;;;;5071323;28;20025;-76
2022/05/19 11:55:12;;;;;;;0.60;0.60;;;25.40;32.80;;;;;;5009039;28;20065;-74
2022/05/19 11:57:56;;;;;;;1.45;1.00;;;25.30;32.90;;;;;;5066405;28;20041;-76
2022/05/19 12:00:32;;;;;;;0.80;0.80;;;25.20;32.60;;;;;;5070853;28;20071;-75
2022/05/19 12:03:21;;;;;;;0.65;0.65;;;25.10;32.90;;;;;;5074592;28;20056;-75
2022/05/19 12:06:09;;;;;;;1.83;0.70;;;25.10;33.00;;;;;;5074883;28;20103;-75
2022/05/19 12:08:53;;;;;;;1.15;0.70;;;25.00;32.90;;;;;;5056668;28;20025;-75
2022/05/19 12:11:25;;;;;;;2.88;0.85;;;24.90;33.20;;;;;;5073880;28;20479;-75
2022/05/19 12:14:11;;;;;;;0.88;0.60;;;24.90;32.80;;;;;;5073500;28;20370;-76
2022/05/19 12:16:45;;;;;;;0.60;0.60;;;24.80;32.50;;;;;;5054771;28;20029;-76
2022/05/19 12:19:32;;;;;;;2.08;0.60;;;24.70;33.10;;;;;;5036209;28;20413;-75
2022/05/19 12:21:58;;;;;;;2.13;0.70;;;24.70;32.90;;;;;;5054569;28;20079;-76
2022/05/19 12:24:31;;;;;;;0.90;0.85;;;24.70;32.70;;;;;;5054108;28;20021;-75
2022/05/19 12:27:09;;;;;;;0.75;0.75;;;24.70;33.20;;;;;;5054740;28;20061;-76
2022/05/19 12:31:56;;;;;;;1.08;0.80;;;24.70;32.70;;;;;;5054718;28;20021;-76
2022/05/19 12:33:01;;;;;;;1.08;0.70;;;24.70;33.00;;;;;;5053938;28;20033;-74
2022/05/19 12:35:29;;;;;;;1.58;0.63;;;24.70;33.40;;;;;;5053876;28;20112;-75
2022/05/19 12:38:02;;;;;;;0.70;0.70;;;24.70;32.90;;;;;;5054435;28;20374;-76
2022/05/19 12:40:55;;;;;;;1.77;1.00;;;24.70;33.20;;;;;;5053839;28;20144;-76
2022/05/19 12:43:21;;;;;;;1.83;0.65;;;24.70;33.30;;;;;;5044371;28;20543;-76
2022/05/19 12:45:56;;;;;;;2.40;0.60;;;24.70;33.10;;;;;;5054491;28;20041;-75
2022/05/19 12:48:45;;;;;;;1.02;0.68;;;24.70;33.30;;;;;;5054855;28;20086;-75
2022/05/19 12:51:16;;;;;;;0.50;0.50;;;24.70;33.00;;;;;;5052940;28;20024;-76
2022/05/19 12:53:51;;;;;;;1.45;0.70;;;24.70;33.40;;;;;;5053816;28;20182;-76
2022/05/19 12:56:38;;;;;;;3.58;1.02;;;24.70;32.50;;;;;;5053107;28;20025;-75
2022/05/19 12:59:25;;;;;;;4.70;2.00;;;24.70;32.80;;;;;;5053440;28;20110;-75
2022/05/19 13:01:55;;;;;;;0.70;0.52;;;24.70;32.50;;;;;;5053555;28;20055;-76
2022/05/19 13:04:36;;;;;;;1.10;0.60;;;24.70;32.90;;;;;;5052722;28;20450;-76
2022/05/19 13:07:32;;;;;;;1.67;0.70;;;24.70;32.90;;;;;;5053533;28;20051;-77
2022/05/19 13:10:03;;;;;;;1.33;0.80;;;24.70;32.30;;;;;;5053566;28;20029;-76
2022/05/19 13:12:47;;;;;;;1.08;0.65;;;24.70;32.70;;;;;;5053021;28;20057;-75
2022/05/19 13:15:26;;;;;;;0.85;0.50;;;24.70;32.50;;;;;;5052881;28;20462;-75
2022/05/19 13:17:53;;;;;;;1.95;0.70;;;24.70;32.10;;;;;;5053803;28;20056;-75
2022/05/19 13:20:24;;;;;;;0.95;0.70;;;24.70;32.40;;;;;;5052905;28;20116;-75
2022/05/19 13:22:55;;;;;;;0.60;0.60;;;24.70;32.50;;;;;;5053289;28;20025;-76
2022/05/19 13:25:22;;;;;;;1.55;1.02;;;24.80;31.90;;;;;;5034805;28;20437;-75
2022/05/19 13:30:51;;;;;;;1.67;0.85;;;24.80;31.80;;;;;;5053369;28;20060;-77
2022/05/19 13:33:24;;;;;;;2.47;0.60;;;24.80;31.80;;;;;;5074895;28;20020;-75
2022/05/19 13:36:08;;;;;;;1.33;1.00;;;24.80;31.90;;;;;;5073074;28;20029;-75
2022/05/19 13:38:34;;;;;;;0.80;0.75;;;24.90;31.80;;;;;;5072177;28;20025;-75